Terminal Aerodrome Forecast
Issued by NWS Central Illinois

Home | Current Version | Previous Version | Text Only | Print | Product List | Glossary On
Versions: 1 2 3 4 5 6 7 8 9 10 11 12 13 14 15
859
FTUS43 KILX 240220 AAA
TAFPIA
TAF AMD
KPIA 240220Z 2402/2424 16013G19KT P6SM SCT120 WS018/20055KT
     FM241300 19015G25KT P6SM SCT060
     FM241900 20013G25KT P6SM BKN040=

USA.gov is the U.S. government's official web portal to all federal, state and local government web resources and services.